»·PEaware :: SKW717 KSFO-KPHX

SKW717 :: KSFO-KPHX

FLIGHT INFORMATION

Flight Status: Arrived
Operator:
SkyWest Airlines
More flights by this operator :: More flights under this callsign
Pilot: Ty Shuff (2873)
Aircraft: CANADAIR CL-600 CRJ-200
(CRJ2)
More flights by this aircraft type
Origin: KSFO San Francisco Intl
United States
Destination: KPHX Phoenix Sky Harbor Intl
United States
More flights between these airports :: More routes between these airports
Route: +SSTIK3 LOSHN BOILE BLH HYDRR1
File this flight plan on PilotEdge
Remarks:
Altitude:
(Current/Filed)
33,000ft
Speed:
(Current/Filed)
450kts
Departed: 06-Jan-17 06:57 PM
Arrived: 06-Jan-17 08:25 PM
Distance/Time
Traveled:
565nm/1:28
Distance/Time
To Go:
Arrived

Flight Plot

Page will automatically refresh every two minutes.

Flight plan parsing failed; only flown route is shown


Map Options




Map Legend


Flown Route
Filed Route
Departure Airport
Arrival Airport
Navaid (VOR, NDB)
Fix

Horizontal Profiles

Position Reports

Time Latitude Longitude Heading Altitude Ground
Speed
06-Jan-17 18:31 37.615482 -122.382740 225 18ft 0kts
06-Jan-17 18:32 37.615482 -122.382740 225 18ft 0kts
06-Jan-17 18:33 37.615482 -122.382740 225 18ft 0kts
06-Jan-17 18:34 37.615482 -122.382740 225 18ft 0kts
06-Jan-17 18:35 37.615482 -122.382740 225 18ft 0kts
06-Jan-17 18:36 37.615482 -122.382740 225 18ft 0kts
06-Jan-17 18:37 37.615482 -122.382740 225 18ft 0kts
06-Jan-17 18:38 37.615482 -122.382740 225 18ft 0kts
06-Jan-17 18:39 37.615482 -122.382740 225 18ft 0kts
06-Jan-17 18:40 37.615482 -122.382740 225 18ft 0kts
06-Jan-17 18:41 37.615482 -122.382740 225 18ft 0kts
06-Jan-17 18:42 37.615486 -122.382736 225 18ft 0kts
06-Jan-17 18:43 37.615817 -122.382312 226 18ft 6kts
06-Jan-17 18:44 37.616103 -122.382106 135 18ft 0kts
06-Jan-17 18:45 37.616103 -122.382106 135 18ft 0kts
06-Jan-17 18:46 37.616103 -122.382106 135 18ft 0kts
06-Jan-17 18:47 37.616098 -122.382099 135 18ft 0kts
06-Jan-17 18:48 37.615761 -122.381291 116 18ft 0kts
06-Jan-17 18:49 37.615761 -122.381291 116 18ft 0kts
06-Jan-17 18:50 37.615761 -122.381291 116 18ft 0kts
06-Jan-17 18:51 37.614865 -122.380809 207 18ft 12kts
06-Jan-17 18:52 37.611962 -122.382719 207 18ft 8kts
06-Jan-17 18:53 37.609206 -122.384772 188 18ft 8kts
06-Jan-17 18:54 37.608503 -122.383977 118 18ft 0kts
06-Jan-17 18:55 37.608503 -122.383977 118 18ft 0kts
06-Jan-17 18:56 37.608414 -122.382625 34 18ft 21kts
06-Jan-17 18:57 37.638973 -122.367622 7 884ft 169kts
06-Jan-17 18:58 37.694040 -122.368742 327 2817ft 239kts
06-Jan-17 18:59 37.689348 -122.446354 205 5681ft 259kts
06-Jan-17 19:00 37.617818 -122.458104 188 8796ft 269kts
06-Jan-17 19:01 37.541373 -122.467938 188 10791ft 302kts
06-Jan-17 19:02 37.461857 -122.428222 136 12746ft 349kts
06-Jan-17 19:03 37.399020 -122.333334 134 14827ft 365kts
06-Jan-17 19:04 37.333903 -122.232625 134 16619ft 379kts
06-Jan-17 19:05 37.266393 -122.128406 134 18277ft 393kts
06-Jan-17 19:06 37.196390 -122.020664 135 19758ft 405kts
06-Jan-17 19:07 37.124260 -121.910026 135 20996ft 417kts
06-Jan-17 19:08 37.066672 -121.783555 96 22013ft 450kts
06-Jan-17 19:09 37.082396 -121.625546 83 22924ft 464kts
06-Jan-17 19:10 37.101020 -121.460317 83 23026ft 494kts
06-Jan-17 19:11 37.120551 -121.285564 82 23027ft 518kts
06-Jan-17 19:12 37.079196 -121.122937 127 23114ft 496kts
06-Jan-17 19:13 37.007565 -120.974140 127 23273ft 503kts
06-Jan-17 19:14 36.933296 -120.825636 127 23514ft 507kts
06-Jan-17 19:15 36.858196 -120.676748 127 23684ft 509kts
06-Jan-17 19:16 36.782830 -120.528079 127 24017ft 500kts
06-Jan-17 19:17 36.710380 -120.385757 128 25976ft 473kts
06-Jan-17 19:18 36.641821 -120.251746 129 27599ft 455kts
06-Jan-17 19:19 36.573174 -120.118050 129 28449ft 458kts
06-Jan-17 19:20 36.504688 -119.985185 130 29362ft 458kts
06-Jan-17 19:21 36.437358 -119.854547 130 30189ft 458kts
06-Jan-17 19:22 36.368521 -119.721782 131 30714ft 463kts
06-Jan-17 19:23 36.298605 -119.587664 131 31407ft 462kts
06-Jan-17 19:24 36.228556 -119.453911 131 31872ft 467kts
06-Jan-17 19:25 36.158024 -119.319708 131 32513ft 466kts
06-Jan-17 19:26 36.086915 -119.184955 132 32937ft 471kts
06-Jan-17 19:27 36.014852 -119.048963 131 33168ft 481kts
06-Jan-17 19:28 35.940377 -118.908946 131 33172ft 496kts
06-Jan-17 19:29 35.865316 -118.767611 132 33149ft 500kts
06-Jan-17 19:30 35.788416 -118.624216 132 33154ft 507kts
06-Jan-17 19:31 35.704181 -118.487151 156 33161ft 480kts
06-Jan-17 19:32 35.586838 -118.427750 172 33161ft 459kts
06-Jan-17 19:33 35.466882 -118.372562 172 33210ft 463kts
06-Jan-17 19:34 35.349087 -118.318716 171 33192ft 468kts
06-Jan-17 19:35 35.227422 -118.263501 171 33189ft 471kts
06-Jan-17 19:36 35.104847 -118.207891 169 33215ft 476kts
06-Jan-17 19:37 35.019409 -118.075297 112 33232ft 543kts
06-Jan-17 19:38 34.973950 -117.900002 111 33224ft 546kts
06-Jan-17 19:39 34.922067 -117.729260 116 33205ft 542kts
06-Jan-17 19:40 34.867125 -117.558770 117 33208ft 542kts
06-Jan-17 19:41 34.805278 -117.393059 120 33213ft 540kts
06-Jan-17 19:42 34.741981 -117.227320 120 33216ft 541kts
06-Jan-17 19:43 34.678359 -117.062685 121 33246ft 540kts
06-Jan-17 19:44 34.613752 -116.900241 123 33248ft 540kts
06-Jan-17 19:45 34.512727 -116.783276 152 33231ft 503kts
06-Jan-17 19:46 34.403978 -116.680812 152 33233ft 503kts
06-Jan-17 19:47 34.293397 -116.576834 152 33207ft 503kts
06-Jan-17 19:48 34.183690 -116.473528 152 33265ft 502kts
06-Jan-17 19:49 34.074683 -116.370965 152 33267ft 503kts
06-Jan-17 19:50 33.964375 -116.267539 152 33269ft 504kts
06-Jan-17 19:51 33.853634 -116.163974 151 33271ft 505kts
06-Jan-17 19:52 33.761110 -116.033486 126 33206ft 538kts
06-Jan-17 19:53 33.686885 -115.879427 126 33182ft 541kts
06-Jan-17 19:54 33.612079 -115.723859 126 33178ft 540kts
06-Jan-17 19:55 33.556454 -115.558166 90 33186ft 554kts
06-Jan-17 19:56 33.562034 -115.373905 89 33186ft 555kts
06-Jan-17 19:57 33.571103 -115.189509 84 33190ft 556kts
06-Jan-17 19:58 33.582356 -115.004808 85 33193ft 557kts
06-Jan-17 19:59 33.592930 -114.823029 86 31968ft 554kts
06-Jan-17 20:00 33.573099 -114.642639 105 29962ft 548kts
06-Jan-17 20:01 33.511788 -114.481915 124 27962ft 525kts
06-Jan-17 20:02 33.441533 -114.336774 124 25988ft 498kts
06-Jan-17 20:03 33.416194 -114.182075 69 24003ft 485kts
06-Jan-17 20:04 33.451246 -114.031450 93 23239ft 461kts
06-Jan-17 20:05 33.423321 -113.886012 106 23184ft 448kts
06-Jan-17 20:06 33.394556 -113.742145 106 22498ft 447kts
06-Jan-17 20:07 33.365750 -113.600224 106 20695ft 434kts
06-Jan-17 20:08 33.337836 -113.463012 104 19097ft 418kts
06-Jan-17 20:09 33.314383 -113.328413 104 17801ft 409kts
06-Jan-17 20:10 33.292650 -113.197119 102 16517ft 394kts
06-Jan-17 20:11 33.275351 -113.076032 98 15315ft 348kts
06-Jan-17 20:12 33.276976 -112.960981 90 14348ft 348kts
06-Jan-17 20:13 33.279850 -112.850022 90 13116ft 323kts
06-Jan-17 20:14 33.306055 -112.754228 67 11603ft 296kts
06-Jan-17 20:15 33.339010 -112.666258 67 10105ft 286kts
06-Jan-17 20:16 33.370443 -112.583764 67 8956ft 251kts
06-Jan-17 20:17 33.399654 -112.506906 68 8302ft 254kts
06-Jan-17 20:18 33.425985 -112.431535 77 7125ft 241kts
06-Jan-17 20:19 33.428304 -112.357870 93 7003ft 242kts
06-Jan-17 20:20 33.430351 -112.277683 81 6400ft 233kts
06-Jan-17 20:21 33.446187 -112.204948 84 5288ft 201kts
06-Jan-17 20:22 33.440583 -112.142995 93 3281ft 186kts
06-Jan-17 20:23 33.440949 -112.091229 90 2188ft 134kts
06-Jan-17 20:24 33.440829 -112.045526 91 1517ft 142kts
06-Jan-17 20:25 33.440811 -112.007638 89 1139ft 37kts
06-Jan-17 20:26 33.438229 -112.003822 176 1139ft 12kts
06-Jan-17 20:27 33.436892 -112.002381 90 1139ft 0kts

Navigation Log

Ident Type Via Name
Flight plan parsing failed, navigation log unavailable